Ferrigno Boy — WCY2558 — position and weather

sailwx.info

Track history (hours):
 
Tides and Currents Weather Stations Pressure Air Temp Water Temp Dewpoint Dewpoint Depression Visibility Wind Speed Wind Dir Waves Ship Positions

Ferrigno Boy

Owner: FERRIGNO, CIRO, SAN PEDRO, CA. More information available from US FCC via Universal Licensing System and Coast Guard Vessel Documentation Center.

Last reported at 2018-Feb-15 19:04 UTC. Time now 2018-Feb-20 19:33 UTC.
Position N 33°44' W 118°16'.

Type: Fishing. MMSI: 367578550.

Date/timePositionNaut miles runAvg speedWind from/ knotsBaromVisibWave heightAir tempDewpointWater temp
2018-Feb-15 19:04N 33°44' W 118°16'0 0.0
2018-Feb-15 18:47N 33°44' W 118°16'0 0.2
2018-Feb-15 18:30N 33°44' W 118°16'0 0.1
2018-Feb-15 17:59N 33°44' W 118°16'0 0.0
2018-Feb-15 17:30N 33°44' W 118°16'0 0.0
2018-Feb-15 16:47N 33°44' W 118°16'0 0.0
2018-Feb-15 16:28N 33°44' W 118°16'0 0.0
2018-Feb-15 15:57N 33°44' W 118°16'52 4.4
2018-Feb-15 04:08N 34°06' W 119°12'1 7.4
2018-Feb-15 04:00N 34°06' W 119°11'8 7.8
2018-Feb-15 02:59N 34°04' W 119°02'43 6.8
2018-Feb-14 20:41N 33°44' W 118°16'0 0.0
2018-Feb-14 20:29N 33°44' W 118°16'0 0.0
2018-Feb-14 19:57N 33°44' W 118°16'0 0.0
2018-Feb-14 19:30N 33°44' W 118°16'0 0.0
2018-Feb-14 19:00N 33°44' W 118°16'0 0.0
2018-Feb-14 18:28N 33°44' W 118°16'0 0.0
2018-Feb-14 17:58N 33°44' W 118°16'0 0.9
2018-Feb-14 17:30N 33°44' W 118°16'35 2.2
2018-Feb-14 01:30N 34°00' W 118°54'36 8.6
2018-Feb-13 21:20N 33°42' W 118°16'2 5.8
2018-Feb-13 21:00N 33°44' W 118°16'0 0.3
2018-Feb-13 20:09N 33°44' W 118°16'0 0.0
2018-Feb-13 19:57N 33°44' W 118°16'0 0.0
2018-Feb-13 19:10N 33°44' W 118°16'0 0.0
2018-Feb-13 18:58N 33°44' W 118°16'0 0.0
2018-Feb-13 18:28N 33°44' W 118°16'39 5.1
2018-Feb-13 10:49N 34°02' W 118°57'40 3.0
2018-Feb-12 21:25N 33°42' W 118°16'2 4.1
2018-Feb-12 20:59N 33°44' W 118°16'0 0.9
2018-Feb-12 20:30N 33°43' W 118°16'  
2018-Feb-07 01:06N 33°44' W 118°16'0 0.1
2018-Feb-06 23:16N 33°44' W 118°16'0 0.0
2018-Feb-06 22:59N 33°44' W 118°16'0 0.0
2018-Feb-06 22:29N 33°44' W 118°16'0 0.0
2018-Feb-06 21:51N 33°44' W 118°16'0 0.0
2018-Feb-06 21:28N 33°44' W 118°16'0 0.0
2018-Feb-06 20:55N 33°44' W 118°16'0 0.0
2018-Feb-06 20:28N 33°44' W 118°16'0 0.0
2018-Feb-06 19:32N 33°44' W 118°16'0 0.1
2018-Feb-06 19:26N 33°44' W 118°16'0 0.0
2018-Feb-06 19:00N 33°44' W 118°16'0 0.1
2018-Feb-06 18:30N 33°44' W 118°16'0 0.1
2018-Feb-06 17:56N 33°44' W 118°16'0 0.0
2018-Feb-06 17:28N 33°44' W 118°16'0 0.0
2018-Feb-06 17:00N 33°44' W 118°16'0 0.1
2018-Feb-06 16:23N 33°44' W 118°16'0 0.0
2018-Feb-06 15:38N 33°44' W 118°16'0 0.0
2018-Feb-06 15:25N 33°44' W 118°16'1 0.1
2018-Feb-05 21:33N 33°43' W 118°16'0 7.8
2018-Feb-05 21:30N 33°44' W 118°16'1 1.1
2018-Feb-05 20:58N 33°44' W 118°16'0 0.0
2018-Feb-05 20:19N 33°44' W 118°16'0 0.0
2018-Feb-05 20:00N 33°44' W 118°16'  
Track history (hours):
 
Tides and Currents Weather Stations Pressure Air Temp Water Temp Dewpoint Dewpoint Depression Visibility Wind Speed Wind Dir Waves Ship Positions

Ferrigno Boy

Owner: FERRIGNO, CIRO, SAN PEDRO, CA. More information available from US FCC via Universal Licensing System and Coast Guard Vessel Documentation Center.

Last reported at 2018-Feb-15 19:04 UTC. Time now 2018-Feb-20 19:33 UTC.
Position N 33°44' W 118°16'.

Type: Fishing. MMSI: 367578550.

Date/timePositionNaut miles runAvg speedWind from/ knotsBaromVisibWave heightAir tempDewpointWater temp
2018-Feb-15 19:04N 33°44' W 118°16'0 0.0
2018-Feb-15 18:47N 33°44' W 118°16'0 0.2
2018-Feb-15 18:30N 33°44' W 118°16'0 0.1
2018-Feb-15 17:59N 33°44' W 118°16'0 0.0
2018-Feb-15 17:30N 33°44' W 118°16'0 0.0
2018-Feb-15 16:47N 33°44' W 118°16'0 0.0
2018-Feb-15 16:28N 33°44' W 118°16'0 0.0
2018-Feb-15 15:57N 33°44' W 118°16'52 4.4
2018-Feb-15 04:08N 34°06' W 119°12'1 7.4
2018-Feb-15 04:00N 34°06' W 119°11'8 7.8
2018-Feb-15 02:59N 34°04' W 119°02'43 6.8
2018-Feb-14 20:41N 33°44' W 118°16'0 0.0
2018-Feb-14 20:29N 33°44' W 118°16'0 0.0
2018-Feb-14 19:57N 33°44' W 118°16'0 0.0
2018-Feb-14 19:30N 33°44' W 118°16'0 0.0
2018-Feb-14 19:00N 33°44' W 118°16'0 0.0
2018-Feb-14 18:28N 33°44' W 118°16'0 0.0
2018-Feb-14 17:58N 33°44' W 118°16'0 0.9
2018-Feb-14 17:30N 33°44' W 118°16'35 2.2
2018-Feb-14 01:30N 34°00' W 118°54'36 8.6
2018-Feb-13 21:20N 33°42' W 118°16'2 5.8
2018-Feb-13 21:00N 33°44' W 118°16'0 0.3
2018-Feb-13 20:09N 33°44' W 118°16'0 0.0
2018-Feb-13 19:57N 33°44' W 118°16'0 0.0
2018-Feb-13 19:10N 33°44' W 118°16'0 0.0
2018-Feb-13 18:58N 33°44' W 118°16'0 0.0
2018-Feb-13 18:28N 33°44' W 118°16'39 5.1
2018-Feb-13 10:49N 34°02' W 118°57'40 3.0
2018-Feb-12 21:25N 33°42' W 118°16'2 4.1
2018-Feb-12 20:59N 33°44' W 118°16'0 0.9
2018-Feb-12 20:30N 33°43' W 118°16'  
2018-Feb-07 01:06N 33°44' W 118°16'0 0.1
2018-Feb-06 23:16N 33°44' W 118°16'0 0.0
2018-Feb-06 22:59N 33°44' W 118°16'0 0.0
2018-Feb-06 22:29N 33°44' W 118°16'0 0.0
2018-Feb-06 21:51N 33°44' W 118°16'0 0.0
2018-Feb-06 21:28N 33°44' W 118°16'0 0.0
2018-Feb-06 20:55N 33°44' W 118°16'0 0.0
2018-Feb-06 20:28N 33°44' W 118°16'0 0.0
2018-Feb-06 19:32N 33°44' W 118°16'0 0.1
2018-Feb-06 19:26N 33°44' W 118°16'0 0.0
2018-Feb-06 19:00N 33°44' W 118°16'0 0.1
2018-Feb-06 18:30N 33°44' W 118°16'0 0.1
2018-Feb-06 17:56N 33°44' W 118°16'0 0.0
2018-Feb-06 17:28N 33°44' W 118°16'0 0.0
2018-Feb-06 17:00N 33°44' W 118°16'0 0.1
2018-Feb-06 16:23N 33°44' W 118°16'0 0.0
2018-Feb-06 15:38N 33°44' W 118°16'0 0.0
2018-Feb-06 15:25N 33°44' W 118°16'1 0.1
2018-Feb-05 21:33N 33°43' W 118°16'0 7.8
2018-Feb-05 21:30N 33°44' W 118°16'1 1.1
2018-Feb-05 20:58N 33°44' W 118°16'0 0.0
2018-Feb-05 20:19N 33°44' W 118°16'0 0.0
2018-Feb-05 20:00N 33°44' W 118°16'  

Dump ship's entire track history